createdAt,value
2023-10-26T00:00:49.601Z,87.05
2023-10-26T00:07:21.408Z,86.42
2023-10-26T00:10:23.417Z,86.78
2023-10-26T00:13:26.344Z,86.52
2023-10-26T00:16:29.924Z,86.71
2023-10-26T00:19:34.727Z,86.66
2023-10-26T00:22:39.195Z,86.22
2023-10-26T00:25:42.114Z,85.83
2023-10-26T00:31:56.835Z,86.36
2023-10-26T00:35:04.062Z,85.94
2023-10-26T00:38:11.066Z,85.63
2023-10-26T00:44:47.691Z,85.24
2023-10-26T00:47:51.034Z,86.01
2023-10-26T00:51:02.258Z,85.33
2023-10-26T00:57:31.750Z,85.55
2023-10-26T01:00:44.744Z,85.04
2023-10-26T01:03:49.677Z,85.88
2023-10-26T01:06:51.532Z,84.42
2023-10-26T01:10:00.214Z,85.54
2023-10-26T01:13:04.215Z,85.20
2023-10-26T01:16:18.796Z,85.54
2023-10-26T01:19:37.318Z,85.01
2023-10-26T01:22:50.184Z,85.14
2023-10-26T01:26:01.440Z,84.69
2023-10-26T01:29:29.960Z,84.61
2023-10-26T01:36:00.494Z,84.91
2023-10-26T01:39:05.110Z,85.00
2023-10-26T01:45:30.990Z,84.66
2023-10-26T01:51:53.318Z,85.31
2023-10-26T01:54:59.168Z,84.81
2023-10-26T01:58:01.513Z,84.56
2023-10-26T02:01:07.985Z,84.06
2023-10-26T02:04:11.130Z,84.41
2023-10-26T02:14:24.826Z,84.43
2023-10-26T02:17:30.585Z,84.80
2023-10-26T02:23:52.693Z,84.18
2023-10-26T02:33:23.891Z,84.48
2023-10-26T02:36:36.411Z,84.23
2023-10-26T02:39:41.639Z,84.56
2023-10-26T02:42:50.913Z,84.33
2023-10-26T02:46:10.587Z,84.08
2023-10-26T02:49:14.863Z,83.77
2023-10-26T02:52:18.861Z,84.08
2023-10-26T02:55:44.373Z,83.73
2023-10-26T02:58:46.303Z,83.00
2023-10-26T03:01:48.915Z,83.57
2023-10-26T03:08:08.327Z,83.29
2023-10-26T03:11:11.500Z,83.27
2023-10-26T03:14:19.221Z,82.92
2023-10-26T03:17:21.636Z,84.26
2023-10-26T03:20:23.803Z,82.93
2023-10-26T03:23:27.625Z,82.38
2023-10-26T03:26:36.481Z,83.45
2023-10-26T03:32:55.363Z,82.91
2023-10-26T03:36:02.605Z,82.50
2023-10-26T03:42:36.527Z,81.89
2023-10-26T03:45:41.148Z,82.31
2023-10-26T03:48:43.442Z,82.57
2023-10-26T03:51:45.337Z,81.99
2023-10-26T03:58:14.611Z,82.77
2023-10-26T04:04:27.790Z,81.51
2023-10-26T04:07:29.974Z,82.38
2023-10-26T04:10:55.336Z,81.63
2023-10-26T04:17:34.162Z,81.20
2023-10-26T04:20:37.065Z,80.83
2023-10-26T04:23:44.983Z,80.91
2023-10-26T04:26:47.636Z,81.52
2023-10-26T04:29:55.546Z,81.85
2023-10-26T04:33:00.871Z,82.44
2023-10-26T04:39:35.704Z,81.77
2023-10-26T04:42:39.812Z,81.55
2023-10-26T04:45:45.325Z,82.13
2023-10-26T04:49:01.667Z,81.41
2023-10-26T04:52:10.728Z,81.76
2023-10-26T04:55:12.494Z,81.65
2023-10-26T04:58:22.260Z,81.46
2023-10-26T05:01:26.820Z,81.46
2023-10-26T05:04:43.157Z,81.57
2023-10-26T05:07:47.699Z,82.18
2023-10-26T05:10:49.847Z,80.36
2023-10-26T05:13:52.190Z,80.86
2023-10-26T05:16:56.065Z,80.56
2023-10-26T05:20:00.153Z,80.63
2023-10-26T05:26:20.985Z,81.21
2023-10-26T05:29:23.370Z,81.28
2023-10-26T05:32:25.332Z,81.11
2023-10-26T05:35:28.896Z,81.42
2023-10-26T05:38:32.197Z,81.37
2023-10-26T05:41:34.147Z,81.53
2023-10-26T05:44:35.918Z,81.01
2023-10-26T05:47:42.313Z,81.37
2023-10-26T05:53:52.578Z,80.79
2023-10-26T06:00:27.247Z,81.91
2023-10-26T06:03:31.045Z,81.45
2023-10-26T06:06:34.437Z,81.57
2023-10-26T06:12:56.751Z,81.51
2023-10-26T06:16:01.648Z,81.71
2023-10-26T06:19:14.283Z,81.51
2023-10-26T06:22:22.566Z,82.64
2023-10-26T06:25:29.029Z,82.01
2023-10-26T06:32:21.644Z,82.22
2023-10-26T06:35:45.359Z,81.81
2023-10-26T06:38:50.388Z,81.74
2023-10-26T06:45:19.112Z,82.25
2023-10-26T06:48:22.394Z,82.32
2023-10-26T06:55:04.449Z,82.15
2023-10-26T07:02:09.046Z,82.55
2023-10-26T07:08:28.374Z,82.26
2023-10-26T07:11:37.160Z,81.99
2023-10-26T07:14:41.822Z,81.52
2023-10-26T07:17:44.471Z,81.94
2023-10-26T07:24:28.611Z,82.08
2023-10-26T07:27:50.068Z,81.87
2023-10-26T07:37:50.029Z,82.07
2023-10-26T07:40:57.233Z,80.92
2023-10-26T07:44:19.583Z,80.82
2023-10-26T07:57:53.140Z,80.97
2023-10-26T08:01:01.835Z,80.35
2023-10-26T08:07:24.349Z,79.93
2023-10-26T08:10:36.677Z,80.02
2023-10-26T08:13:40.868Z,80.04
2023-10-26T08:30:55.247Z,78.08
2023-10-26T08:33:57.763Z,78.85
2023-10-26T08:40:24.981Z,77.66
2023-10-26T08:43:37.074Z,77.74
2023-10-26T08:46:43.507Z,78.44
2023-10-26T08:50:03.721Z,77.41
2023-10-26T08:53:10.959Z,78.11
2023-10-26T08:56:19.668Z,77.02
2023-10-26T08:59:25.689Z,77.35
2023-10-26T09:02:33.206Z,77.35
2023-10-26T09:05:52.105Z,78.41
2023-10-26T09:09:03.001Z,78.29
2023-10-26T09:12:27.379Z,77.89
2023-10-26T09:15:47.581Z,76.94
2023-10-26T09:18:50.446Z,76.28
2023-10-26T09:21:57.411Z,76.83
2023-10-26T09:28:30.850Z,77.29
2023-10-26T09:31:35.073Z,77.29
2023-10-26T09:34:41.645Z,77.45
2023-10-26T09:37:55.339Z,77.59
2023-10-26T09:40:59.569Z,76.13
2023-10-26T09:44:05.088Z,76.63
2023-10-26T09:47:09.781Z,77.18
2023-10-26T09:50:19.249Z,76.74
2023-10-26T09:53:26.606Z,75.85
2023-10-26T09:56:36.426Z,76.67
2023-10-26T10:03:14.512Z,76.65
2023-10-26T10:06:53.602Z,76.48
2023-10-26T10:10:23.194Z,76.88
2023-10-26T10:13:37.906Z,77.08
2023-10-26T10:16:54.000Z,77.46
2023-10-26T10:20:29.184Z,76.83
2023-10-26T10:27:17.806Z,75.30
2023-10-26T10:30:22.674Z,75.37
2023-10-26T10:33:29.973Z,74.97
2023-10-26T10:37:16.593Z,75.12
2023-10-26T10:40:31.549Z,75.50
2023-10-26T10:43:34.669Z,75.03
2023-10-26T10:46:42.190Z,73.89
2023-10-26T10:53:01.871Z,74.53
2023-10-26T10:56:05.098Z,74.14
2023-10-26T11:02:51.486Z,72.98
2023-10-26T11:05:53.457Z,73.30
2023-10-26T11:08:57.266Z,73.00
2023-10-26T11:12:10.006Z,73.18
2023-10-26T11:15:14.639Z,72.44
2023-10-26T11:18:16.922Z,72.11
2023-10-26T11:21:23.610Z,71.49
2023-10-26T11:24:38.898Z,71.30
2023-10-26T11:27:46.349Z,71.15
2023-10-26T11:30:50.360Z,70.63
2023-10-26T11:33:58.593Z,71.35
2023-10-26T11:40:39.966Z,71.35
2023-10-26T11:43:43.787Z,70.83
2023-10-26T11:46:46.807Z,70.47
2023-10-26T11:49:51.356Z,72.76
2023-10-26T11:52:59.397Z,70.91
2023-10-26T11:59:34.954Z,71.16
2023-10-26T12:02:38.946Z,71.87
2023-10-26T12:05:42.460Z,72.09
2023-10-26T12:08:48.262Z,71.23
2023-10-26T12:12:19.269Z,70.41
2023-10-26T12:15:22.607Z,70.75
2023-10-26T12:18:26.620Z,70.80
2023-10-26T12:24:35.747Z,70.79
2023-10-26T12:31:09.350Z,70.64
2023-10-26T12:34:13.072Z,70.54
2023-10-26T12:37:15.877Z,71.10
2023-10-26T12:40:17.843Z,70.37
2023-10-26T12:46:42.789Z,70.74
2023-10-26T12:49:47.713Z,70.31
2023-10-26T12:52:50.770Z,70.42
2023-10-26T12:55:52.937Z,69.68
2023-10-26T12:58:54.986Z,70.09
2023-10-26T13:01:59.923Z,68.93
2023-10-26T13:05:05.029Z,70.81
2023-10-26T13:08:09.087Z,70.42
2023-10-26T13:11:13.952Z,69.99
2023-10-26T13:14:18.192Z,70.30
2023-10-26T13:17:20.035Z,70.68
2023-10-26T13:20:23.245Z,69.69
2023-10-26T13:23:28.583Z,69.79
2023-10-26T13:26:31.649Z,69.96
2023-10-26T13:29:34.149Z,69.60
2023-10-26T13:32:37.429Z,71.54
2023-10-26T13:35:48.740Z,69.85
2023-10-26T13:38:58.478Z,70.70
2023-10-26T13:42:00.959Z,70.46
2023-10-26T13:45:05.188Z,69.80
2023-10-26T13:48:07.525Z,71.18
2023-10-26T13:54:47.041Z,69.82
2023-10-26T14:01:02.505Z,70.03
2023-10-26T14:07:43.349Z,69.24
2023-10-26T14:14:21.770Z,68.31
2023-10-26T14:17:29.503Z,69.42
2023-10-26T14:20:31.599Z,68.29
2023-10-26T14:23:41.462Z,67.96
2023-10-26T14:26:46.302Z,70.17
2023-10-26T14:36:33.802Z,69.77
2023-10-26T14:39:37.905Z,69.86
2023-10-26T14:42:44.934Z,69.51
2023-10-26T14:49:20.225Z,70.31
2023-10-26T14:52:25.406Z,70.27
2023-10-26T14:59:15.018Z,70.98
2023-10-26T15:02:27.299Z,70.54
2023-10-26T15:10:20.844Z,71.07
2023-10-26T15:12:45.899Z,70.62
2023-10-26T15:15:59.399Z,70.06
2023-10-26T15:19:02.464Z,70.13
2023-10-26T15:25:30.779Z,70.48
2023-10-26T15:32:08.266Z,70.62
2023-10-26T15:35:10.447Z,71.45
2023-10-26T15:38:12.564Z,71.47
2023-10-26T15:41:15.873Z,70.16
2023-10-26T15:47:47.899Z,71.10
2023-10-26T15:50:50.507Z,71.06
2023-10-26T15:53:53.466Z,70.59
2023-10-26T15:56:59.381Z,70.56
2023-10-26T16:00:01.918Z,71.04
2023-10-26T16:06:27.006Z,71.24
2023-10-26T16:09:29.533Z,71.25
2023-10-26T16:12:31.332Z,70.39
2023-10-26T16:15:38.978Z,71.49
2023-10-26T16:18:44.026Z,71.04
2023-10-26T16:21:46.010Z,71.21
2023-10-26T16:24:48.788Z,71.17
2023-10-26T16:27:50.726Z,70.71
2023-10-26T16:30:58.482Z,70.80
2023-10-26T16:34:04.572Z,70.42
2023-10-26T16:37:06.835Z,71.03
2023-10-26T16:40:09.325Z,71.00
2023-10-26T16:43:13.872Z,70.83
2023-10-26T16:49:34.112Z,70.59
2023-10-26T16:52:38.138Z,70.55
2023-10-26T16:55:50.361Z,70.23
2023-10-26T16:58:54.542Z,71.12
2023-10-26T17:02:03.133Z,71.02
2023-10-26T17:08:35.221Z,69.78
2023-10-26T17:11:37.597Z,70.56
2023-10-26T17:14:40.243Z,70.93
2023-10-26T17:17:56.387Z,69.85
2023-10-26T17:21:00.092Z,71.13
2023-10-26T17:24:12.398Z,70.93
2023-10-26T17:27:15.126Z,71.23
2023-10-26T17:30:21.188Z,70.59
2023-10-26T17:33:50.321Z,70.78
2023-10-26T17:36:54.011Z,71.11
2023-10-26T17:39:57.105Z,70.67
2023-10-26T17:43:00.677Z,71.10
2023-10-26T17:46:02.957Z,70.26
2023-10-26T17:49:05.488Z,70.56
2023-10-26T17:52:08.928Z,70.16
2023-10-26T17:55:21.289Z,70.22
2023-10-26T17:58:24.092Z,70.35
2023-10-26T18:01:26.276Z,71.23
2023-10-26T18:04:28.605Z,70.42
2023-10-26T18:07:31.979Z,69.64
2023-10-26T18:10:33.811Z,70.46
2023-10-26T18:13:35.932Z,70.09
2023-10-26T18:16:45.279Z,70.39
2023-10-26T18:19:49.656Z,70.26
2023-10-26T18:26:16.064Z,70.32
2023-10-26T18:29:18.328Z,69.74
2023-10-26T18:32:21.349Z,69.87
2023-10-26T18:35:23.063Z,69.67
2023-10-26T18:38:26.267Z,70.77
2023-10-26T18:41:30.760Z,69.42
2023-10-26T18:44:33.988Z,69.41
2023-10-26T18:47:38.095Z,68.70
2023-10-26T18:50:47.257Z,69.30
2023-10-26T18:53:50.498Z,69.84
2023-10-26T18:57:00.476Z,68.63
2023-10-26T19:00:06.464Z,70.18
2023-10-26T19:06:27.801Z,69.23
2023-10-26T19:09:37.112Z,68.94
2023-10-26T19:16:17.302Z,69.36
2023-10-26T19:19:19.367Z,69.61
2023-10-26T19:22:23.060Z,69.77
2023-10-26T19:25:28.572Z,69.00
2023-10-26T19:28:30.565Z,68.98
2023-10-26T19:31:52.714Z,69.01
2023-10-26T19:38:29.836Z,69.16
2023-10-26T19:41:40.090Z,69.59
2023-10-26T19:44:43.503Z,68.88
2023-10-26T19:47:45.402Z,68.07
2023-10-26T19:54:27.442Z,68.11
2023-10-26T19:57:33.802Z,67.54
2023-10-26T20:00:35.712Z,68.33
2023-10-26T20:03:38.854Z,67.83
2023-10-26T20:06:40.948Z,67.90
2023-10-26T20:09:43.801Z,68.32
2023-10-26T20:12:47.206Z,67.72
2023-10-26T20:15:49.215Z,66.96
2023-10-26T20:18:51.329Z,68.37
2023-10-26T20:21:53.252Z,67.55
2023-10-26T20:24:56.117Z,68.64
2023-10-26T20:28:03.684Z,68.48
2023-10-26T20:31:17.763Z,67.10
2023-10-26T20:34:21.875Z,67.76
2023-10-26T20:37:24.965Z,67.63
2023-10-26T20:40:32.505Z,68.03
2023-10-26T20:43:35.697Z,67.88
2023-10-26T20:46:38.177Z,67.61
2023-10-26T20:49:42.355Z,67.61
2023-10-26T20:52:46.246Z,67.63
2023-10-26T20:55:49.481Z,67.42
2023-10-26T20:58:57.549Z,67.62
2023-10-26T21:01:59.692Z,67.18
2023-10-26T21:05:03.378Z,67.54
2023-10-26T21:08:12.325Z,67.58
2023-10-26T21:11:18.522Z,68.01
2023-10-26T21:14:21.760Z,68.34
2023-10-26T21:17:23.907Z,66.64
2023-10-26T21:20:26.117Z,68.13
2023-10-26T21:23:28.341Z,67.67
2023-10-26T21:26:30.128Z,68.10
2023-10-26T21:29:37.709Z,67.27
2023-10-26T21:32:40.233Z,68.01
2023-10-26T21:35:42.047Z,67.58
2023-10-26T21:38:44.102Z,68.00
2023-10-26T21:41:46.512Z,67.42
2023-10-26T21:44:52.526Z,68.03
2023-10-26T21:47:59.219Z,69.12
2023-10-26T21:51:14.518Z,67.55
2023-10-26T21:54:19.261Z,68.97
2023-10-26T21:57:21.193Z,67.80
2023-10-26T22:00:29.683Z,68.55
2023-10-26T22:03:31.369Z,68.73
2023-10-26T22:06:33.623Z,68.49
2023-10-26T22:09:52.240Z,68.14
2023-10-26T22:12:57.665Z,68.89
2023-10-26T22:16:12.351Z,68.90
2023-10-26T22:19:15.464Z,68.60
2023-10-26T22:22:17.730Z,68.96
2023-10-26T22:25:20.028Z,69.34
2023-10-26T22:28:21.811Z,68.96
2023-10-26T22:31:25.382Z,68.87
2023-10-26T22:34:27.868Z,69.08
2023-10-26T22:37:29.486Z,69.69
2023-10-26T22:40:36.167Z,70.96
2023-10-26T22:43:41.093Z,70.88
2023-10-26T22:46:50.945Z,71.61
2023-10-26T22:49:52.901Z,71.85
2023-10-26T22:52:57.151Z,72.42
2023-10-26T22:59:19.778Z,72.48
2023-10-26T23:02:23.247Z,72.47
2023-10-26T23:05:37.617Z,72.94
2023-10-26T23:08:41.951Z,71.72
2023-10-26T23:11:44.571Z,72.91
2023-10-26T23:14:49.527Z,72.71
2023-10-26T23:17:53.579Z,72.55
2023-10-26T23:20:55.474Z,71.58
2023-10-26T23:27:29.224Z,72.67
2023-10-26T23:30:31.281Z,71.12
2023-10-26T23:33:34.884Z,71.61
2023-10-26T23:36:36.821Z,72.52
2023-10-26T23:39:42.583Z,71.83
2023-10-26T23:42:44.487Z,72.85
2023-10-26T23:45:46.448Z,73.05
2023-10-26T23:48:49.770Z,73.74
2023-10-26T23:52:03.559Z,74.17
2023-10-26T23:55:06.838Z,74.24
2023-10-26T23:58:08.650Z,73.75
